sensor_id;sensor_type;location;lat;lon;timestamp;pressure;altitude;pressure_sealevel;temperature;humidity
75008;BME280;63554;48.940;12.050;2024-02-14T00:00:30;97877.47;;;1.03;83.56
75008;BME280;63554;48.940;12.050;2024-02-14T00:04:33;97883.44;;;0.97;83.62
75008;BME280;63554;48.940;12.050;2024-02-14T00:08:37;97884.03;;;0.91;83.78
75008;BME280;63554;48.940;12.050;2024-02-14T00:12:40;97881.53;;;0.90;83.76
75008;BME280;63554;48.940;12.050;2024-02-14T00:16:43;97885.00;;;0.90;83.76
75008;BME280;63554;48.940;12.050;2024-02-14T00:20:45;97886.31;;;0.86;84.04
75008;BME280;63554;48.940;12.050;2024-02-14T00:24:50;97880.44;;;0.83;84.39
75008;BME280;63554;48.940;12.050;2024-02-14T00:28:52;97875.75;;;0.77;84.82
75008;BME280;63554;48.940;12.050;2024-02-14T00:32:55;97883.66;;;0.69;84.62
75008;BME280;63554;48.940;12.050;2024-02-14T00:36:59;97890.13;;;0.66;84.62
75008;BME280;63554;48.940;12.050;2024-02-14T00:41:03;97890.41;;;0.63;84.69
75008;BME280;63554;48.940;12.050;2024-02-14T00:45:06;97890.72;;;0.60;84.41
75008;BME280;63554;48.940;12.050;2024-02-14T00:49:10;97886.53;;;0.57;84.77
75008;BME280;63554;48.940;12.050;2024-02-14T00:53:15;97883.47;;;0.52;84.74
75008;BME280;63554;48.940;12.050;2024-02-14T00:57:19;97897.75;;;0.51;84.90
75008;BME280;63554;48.940;12.050;2024-02-14T01:01:22;97892.75;;;0.48;85.29
75008;BME280;63554;48.940;12.050;2024-02-14T01:05:24;97899.91;;;0.48;85.07
75008;BME280;63554;48.940;12.050;2024-02-14T01:09:28;97908.88;;;0.47;84.89
75008;BME280;63554;48.940;12.050;2024-02-14T01:13:32;97894.88;;;0.45;84.98
75008;BME280;63554;48.940;12.050;2024-02-14T01:17:35;97886.34;;;0.41;85.08
75008;BME280;63554;48.940;12.050;2024-02-14T01:21:40;97888.88;;;0.43;85.21
75008;BME280;63554;48.940;12.050;2024-02-14T01:25:42;97893.50;;;0.41;84.86
75008;BME280;63554;48.940;12.050;2024-02-14T01:29:47;97890.97;;;0.39;85.35
75008;BME280;63554;48.940;12.050;2024-02-14T01:33:49;97892.78;;;0.39;85.15
75008;BME280;63554;48.940;12.050;2024-02-14T01:37:53;97891.13;;;0.38;85.25
75008;BME280;63554;48.940;12.050;2024-02-14T01:41:56;97893.81;;;0.38;85.51
75008;BME280;63554;48.940;12.050;2024-02-14T01:46:04;97896.31;;;0.39;85.34
75008;BME280;63554;48.940;12.050;2024-02-14T01:50:09;97892.66;;;0.40;85.56
75008;BME280;63554;48.940;12.050;2024-02-14T01:54:14;97897.81;;;0.42;85.32
75008;BME280;63554;48.940;12.050;2024-02-14T01:58:18;97892.50;;;0.42;85.84
75008;BME280;63554;48.940;12.050;2024-02-14T02:02:22;97894.19;;;0.43;85.97
75008;BME280;63554;48.940;12.050;2024-02-14T02:06:25;97895.84;;;0.44;86.06
75008;BME280;63554;48.940;12.050;2024-02-14T02:10:29;97903.84;;;0.44;85.98
75008;BME280;63554;48.940;12.050;2024-02-14T02:14:32;97894.19;;;0.43;86.49
75008;BME280;63554;48.940;12.050;2024-02-14T02:18:36;97895.56;;;0.47;86.87
75008;BME280;63554;48.940;12.050;2024-02-14T02:22:45;97898.91;;;0.49;86.46
75008;BME280;63554;48.940;12.050;2024-02-14T02:26:48;97886.59;;;0.48;87.26
75008;BME280;63554;48.940;12.050;2024-02-14T02:30:51;97893.56;;;0.49;87.21
75008;BME280;63554;48.940;12.050;2024-02-14T02:34:55;97893.56;;;0.49;87.31
75008;BME280;63554;48.940;12.050;2024-02-14T02:38:59;97889.09;;;0.49;87.37
75008;BME280;63554;48.940;12.050;2024-02-14T02:43:02;97880.13;;;0.50;87.77
75008;BME280;63554;48.940;12.050;2024-02-14T02:47:05;97884.59;;;0.50;87.63
75008;BME280;63554;48.940;12.050;2024-02-14T02:51:08;97886.44;;;0.49;87.52
75008;BME280;63554;48.940;12.050;2024-02-14T02:55:12;97893.56;;;0.49;87.82
75008;BME280;63554;48.940;12.050;2024-02-14T02:59:15;97894.41;;;0.49;88.11
75008;BME280;63554;48.940;12.050;2024-02-14T03:03:18;97893.19;;;0.44;88.28
75008;BME280;63554;48.940;12.050;2024-02-14T03:07:21;97895.47;;;0.39;88.60
75008;BME280;63554;48.940;12.050;2024-02-14T03:11:27;97894.78;;;0.37;88.40
75008;BME280;63554;48.940;12.050;2024-02-14T03:15:30;97897.44;;;0.37;88.42
75008;BME280;63554;48.940;12.050;2024-02-14T03:19:34;97896.47;;;0.38;88.93
75008;BME280;63554;48.940;12.050;2024-02-14T03:23:40;97892.97;;;0.37;88.77
75008;BME280;63554;48.940;12.050;2024-02-14T03:27:44;97889.44;;;0.37;89.15
75008;BME280;63554;48.940;12.050;2024-02-14T03:31:49;97892.13;;;0.37;88.64
75008;BME280;63554;48.940;12.050;2024-02-14T03:35:53;97895.63;;;0.37;88.82
75008;BME280;63554;48.940;12.050;2024-02-14T03:39:56;97893.94;;;0.36;88.73
75008;BME280;63554;48.940;12.050;2024-02-14T03:44:00;97905.44;;;0.37;88.99
75008;BME280;63554;48.940;12.050;2024-02-14T03:48:05;97896.75;;;0.35;89.29
75008;BME280;63554;48.940;12.050;2024-02-14T03:52:08;97901.41;;;0.33;89.13
75008;BME280;63554;48.940;12.050;2024-02-14T03:56:13;97896.38;;;0.30;88.65
75008;BME280;63554;48.940;12.050;2024-02-14T04:00:19;97900.16;;;0.27;89.14
75008;BME280;63554;48.940;12.050;2024-02-14T04:04:24;97893.44;;;0.23;88.88
75008;BME280;63554;48.940;12.050;2024-02-14T04:08:26;97892.63;;;0.23;89.42
75008;BME280;63554;48.940;12.050;2024-02-14T04:12:31;97898.94;;;0.22;89.48
75008;BME280;63554;48.940;12.050;2024-02-14T04:16:35;97907.19;;;0.19;88.89
75008;BME280;63554;48.940;12.050;2024-02-14T04:20:38;97910.16;;;0.16;89.08
75008;BME280;63554;48.940;12.050;2024-02-14T04:24:42;97904.16;;;0.14;89.24
75008;BME280;63554;48.940;12.050;2024-02-14T04:28:45;97908.78;;;0.12;89.20
75008;BME280;63554;48.940;12.050;2024-02-14T04:32:49;97904.19;;;0.31;89.10
75008;BME280;63554;48.940;12.050;2024-02-14T04:36:53;97895.19;;;1.30;89.94
75008;BME280;63554;48.940;12.050;2024-02-14T04:40:56;97892.78;;;1.96;89.81
75008;BME280;63554;48.940;12.050;2024-02-14T04:45:00;97898.66;;;2.41;90.07
75008;BME280;63554;48.940;12.050;2024-02-14T04:49:04;97908.78;;;2.22;90.59
75008;BME280;63554;48.940;12.050;2024-02-14T04:53:07;97905.00;;;1.73;90.61
75008;BME280;63554;48.940;12.050;2024-02-14T04:57:10;97909.50;;;1.29;90.62
75008;BME280;63554;48.940;12.050;2024-02-14T05:01:13;97914.78;;;1.03;90.54
75008;BME280;63554;48.940;12.050;2024-02-14T05:05:18;97915.25;;;0.81;90.38
75008;BME280;63554;48.940;12.050;2024-02-14T05:09:22;97916.06;;;0.64;90.68
75008;BME280;63554;48.940;12.050;2024-02-14T05:13:24;97918.84;;;0.45;90.48
75008;BME280;63554;48.940;12.050;2024-02-14T05:17:27;97927.63;;;0.28;90.61
75008;BME280;63554;48.940;12.050;2024-02-14T05:21:32;97917.56;;;0.22;90.49
75008;BME280;63554;48.940;12.050;2024-02-14T05:25:34;97915.34;;;0.17;90.90
75008;BME280;63554;48.940;12.050;2024-02-14T05:29:37;97913.53;;;0.08;90.60
75008;BME280;63554;48.940;12.050;2024-02-14T05:33:40;97911.22;;;0.05;90.32
75008;BME280;63554;48.940;12.050;2024-02-14T05:37:46;97919.31;;;0.04;90.16
75008;BME280;63554;48.940;12.050;2024-02-14T05:41:51;97912.47;;;0.01;90.14
75008;BME280;63554;48.940;12.050;2024-02-14T05:45:56;97919.75;;;-0.01;90.52
75008;BME280;63554;48.940;12.050;2024-02-14T05:49:58;97917.00;;;-0.09;90.13
75008;BME280;63554;48.940;12.050;2024-02-14T05:54:03;97918.28;;;-0.13;90.25
75008;BME280;63554;48.940;12.050;2024-02-14T05:58:06;97903.44;;;-0.16;90.32
75008;BME280;63554;48.940;12.050;2024-02-14T06:02:09;97924.72;;;-0.16;90.24
75008;BME280;63554;48.940;12.050;2024-02-14T06:06:11;97924.72;;;-0.16;90.12
75008;BME280;63554;48.940;12.050;2024-02-14T06:10:16;97927.22;;;-0.14;89.91
75008;BME280;63554;48.940;12.050;2024-02-14T06:14:19;97924.97;;;-0.09;89.85
75008;BME280;63554;48.940;12.050;2024-02-14T06:18:22;97932.78;;;-0.08;89.66
75008;BME280;63554;48.940;12.050;2024-02-14T06:22:25;97944.84;;;-0.04;89.73
75008;BME280;63554;48.940;12.050;2024-02-14T06:26:29;97965.97;;;-0.02;89.77
75008;BME280;63554;48.940;12.050;2024-02-14T06:30:32;97971.28;;;-0.02;89.92
75008;BME280;63554;48.940;12.050;2024-02-14T06:34:35;97971.16;;;-0.01;90.15
75008;BME280;63554;48.940;12.050;2024-02-14T06:38:38;97980.81;;;0.00;90.44
75008;BME280;63554;48.940;12.050;2024-02-14T06:42:42;97982.34;;;0.03;90.26
75008;BME280;63554;48.940;12.050;2024-02-14T06:46:45;97980.06;;;0.08;89.65
75008;BME280;63554;48.940;12.050;2024-02-14T06:50:48;97983.97;;;0.14;90.17
75008;BME280;63554;48.940;12.050;2024-02-14T06:54:51;97981.72;;;0.19;90.20
75008;BME280;63554;48.940;12.050;2024-02-14T06:58:55;97984.78;;;0.24;89.96
75008;BME280;63554;48.940;12.050;2024-02-14T07:03:02;97982.69;;;0.27;90.36
75008;BME280;63554;48.940;12.050;2024-02-14T07:07:05;97977.91;;;0.31;90.41
75008;BME280;63554;48.940;12.050;2024-02-14T07:11:08;97983.31;;;0.39;90.49
75008;BME280;63554;48.940;12.050;2024-02-14T07:15:12;97981.38;;;0.41;90.39
75008;BME280;63554;48.940;12.050;2024-02-14T07:19:15;97971.41;;;0.43;90.43
75008;BME280;63554;48.940;12.050;2024-02-14T07:23:19;97970.94;;;0.47;90.22
75008;BME280;63554;48.940;12.050;2024-02-14T07:27:22;97979.19;;;0.54;90.33
75008;BME280;63554;48.940;12.050;2024-02-14T07:31:28;97980.28;;;0.61;90.54
75008;BME280;63554;48.940;12.050;2024-02-14T07:35:32;97993.72;;;0.69;90.57
75008;BME280;63554;48.940;12.050;2024-02-14T07:39:35;98001.75;;;0.77;90.50
75008;BME280;63554;48.940;12.050;2024-02-14T07:43:38;97982.41;;;0.85;90.58
75008;BME280;63554;48.940;12.050;2024-02-14T07:47:42;98002.81;;;0.94;90.50
75008;BME280;63554;48.940;12.050;2024-02-14T07:51:45;98004.03;;;0.99;90.52
75008;BME280;63554;48.940;12.050;2024-02-14T07:55:48;98009.75;;;1.04;90.37
75008;BME280;63554;48.940;12.050;2024-02-14T07:59:51;98005.66;;;1.10;90.52
75008;BME280;63554;48.940;12.050;2024-02-14T08:03:55;98000.94;;;1.21;90.67
75008;BME280;63554;48.940;12.050;2024-02-14T08:07:58;97996.22;;;1.33;90.71
75008;BME280;63554;48.940;12.050;2024-02-14T08:12:01;98000.25;;;1.37;90.60
75008;BME280;63554;48.940;12.050;2024-02-14T08:16:05;97999.78;;;1.42;90.55
75008;BME280;63554;48.940;12.050;2024-02-14T08:20:10;97994.53;;;1.50;90.54
75008;BME280;63554;48.940;12.050;2024-02-14T08:24:13;97991.09;;;1.57;90.38
75008;BME280;63554;48.940;12.050;2024-02-14T08:28:16;97988.50;;;1.65;90.51
75008;BME280;63554;48.940;12.050;2024-02-14T08:32:20;97978.06;;;1.72;90.62
75008;BME280;63554;48.940;12.050;2024-02-14T08:36:26;97976.19;;;1.72;90.33
75008;BME280;63554;48.940;12.050;2024-02-14T08:40:29;97973.91;;;1.77;90.49
75008;BME280;63554;48.940;12.050;2024-02-14T08:44:32;97958.97;;;1.84;90.18
75008;BME280;63554;48.940;12.050;2024-02-14T08:48:36;97973.03;;;1.95;90.49
75008;BME280;63554;48.940;12.050;2024-02-14T08:52:44;97973.59;;;2.06;90.27
75008;BME280;63554;48.940;12.050;2024-02-14T08:56:47;97982.41;;;2.24;90.40
75008;BME280;63554;48.940;12.050;2024-02-14T09:00:50;97988.88;;;2.47;90.40
75008;BME280;63554;48.940;12.050;2024-02-14T09:05:09;97994.28;;;2.64;90.46
75008;BME280;63554;48.940;12.050;2024-02-14T09:09:13;98011.38;;;2.79;90.17
75008;BME280;63554;48.940;12.050;2024-02-14T09:13:17;98004.91;;;2.89;90.37
75008;BME280;63554;48.940;12.050;2024-02-14T09:17:20;98005.09;;;2.96;90.38
75008;BME280;63554;48.940;12.050;2024-02-14T09:21:22;98004.97;;;3.05;90.00
75008;BME280;63554;48.940;12.050;2024-02-14T09:25:27;98004.66;;;3.16;89.58
75008;BME280;63554;48.940;12.050;2024-02-14T09:29:29;97992.47;;;3.22;89.94
75008;BME280;63554;48.940;12.050;2024-02-14T09:33:32;97997.00;;;3.30;89.18
75008;BME280;63554;48.940;12.050;2024-02-14T09:37:35;97996.53;;;3.42;89.47
75008;BME280;63554;48.940;12.050;2024-02-14T09:41:42;97994.53;;;3.60;88.93
75008;BME280;63554;48.940;12.050;2024-02-14T09:45:50;97992.19;;;3.73;88.57
75008;BME280;63554;48.940;12.050;2024-02-14T09:49:53;97994.88;;;3.82;88.45
75008;BME280;63554;48.940;12.050;2024-02-14T09:53:56;97999.72;;;3.86;88.37
75008;BME280;63554;48.940;12.050;2024-02-14T09:58:05;97992.88;;;3.92;88.26
75008;BME280;63554;48.940;12.050;2024-02-14T10:02:08;98002.91;;;3.98;87.96
75008;BME280;63554;48.940;12.050;2024-02-14T10:06:11;97992.16;;;4.06;87.68
75008;BME280;63554;48.940;12.050;2024-02-14T10:10:14;97976.44;;;4.11;87.32
75008;BME280;63554;48.940;12.050;2024-02-14T10:14:18;97984.63;;;4.17;87.22
75008;BME280;63554;48.940;12.050;2024-02-14T10:18:21;97984.78;;;4.24;87.41
75008;BME280;63554;48.940;12.050;2024-02-14T10:22:25;97989.66;;;4.28;87.46
75008;BME280;63554;48.940;12.050;2024-02-14T10:26:28;97987.44;;;4.40;87.79
75008;BME280;63554;48.940;12.050;2024-02-14T10:30:34;97979.03;;;4.51;87.30
75008;BME280;63554;48.940;12.050;2024-02-14T10:34:37;97984.38;;;4.59;87.02
75008;BME280;63554;48.940;12.050;2024-02-14T10:38:43;97985.69;;;4.63;87.50
75008;BME280;63554;48.940;12.050;2024-02-14T10:42:47;97991.53;;;4.67;86.98
75008;BME280;63554;48.940;12.050;2024-02-14T10:46:52;97987.34;;;4.72;87.31
75008;BME280;63554;48.940;12.050;2024-02-14T10:50:58;97984.78;;;4.79;87.12
75008;BME280;63554;48.940;12.050;2024-02-14T10:55:03;97974.88;;;4.87;86.83
75008;BME280;63554;48.940;12.050;2024-02-14T10:59:08;97970.78;;;4.99;86.32
75008;BME280;63554;48.940;12.050;2024-02-14T11:03:14;97973.78;;;5.04;86.50
75008;BME280;63554;48.940;12.050;2024-02-14T11:07:17;97972.41;;;5.08;86.33
75008;BME280;63554;48.940;12.050;2024-02-14T11:11:21;97967.19;;;5.15;86.42
75008;BME280;63554;48.940;12.050;2024-02-14T11:15:24;97966.63;;;5.20;86.35
75008;BME280;63554;48.940;12.050;2024-02-14T11:19:33;97968.63;;;5.26;86.21
75008;BME280;63554;48.940;12.050;2024-02-14T11:23:38;97964.03;;;5.34;85.81
75008;BME280;63554;48.940;12.050;2024-02-14T11:27:44;97952.38;;;5.42;85.83
75008;BME280;63554;48.940;12.050;2024-02-14T11:31:47;97946.81;;;5.51;85.75
75008;BME280;63554;48.940;12.050;2024-02-14T11:35:54;97939.34;;;5.61;85.29
75008;BME280;63554;48.940;12.050;2024-02-14T11:39:57;97940.28;;;5.68;85.26
75008;BME280;63554;48.940;12.050;2024-02-14T11:44:01;97936.34;;;5.79;85.07
75008;BME280;63554;48.940;12.050;2024-02-14T11:48:05;97935.09;;;5.90;84.83
75008;BME280;63554;48.940;12.050;2024-02-14T11:52:11;97934.34;;;5.96;84.52
75008;BME280;63554;48.940;12.050;2024-02-14T11:56:15;97940.22;;;5.99;84.66
75008;BME280;63554;48.940;12.050;2024-02-14T12:00:19;97934.47;;;6.02;84.51
75008;BME280;63554;48.940;12.050;2024-02-14T12:04:21;97926.91;;;6.06;84.18
75008;BME280;63554;48.940;12.050;2024-02-14T12:08:26;97930.03;;;6.09;84.36
75008;BME280;63554;48.940;12.050;2024-02-14T12:12:29;97935.03;;;6.12;83.79
75008;BME280;63554;48.940;12.050;2024-02-14T12:16:32;97923.44;;;6.12;83.86
75008;BME280;63554;48.940;12.050;2024-02-14T12:20:38;97929.31;;;6.15;83.54
75008;BME280;63554;48.940;12.050;2024-02-14T12:24:42;97928.94;;;6.18;83.59
75008;BME280;63554;48.940;12.050;2024-02-14T12:28:45;97926.91;;;6.20;83.40
75008;BME280;63554;48.940;12.050;2024-02-14T12:32:57;97917.44;;;6.24;83.38
75008;BME280;63554;48.940;12.050;2024-02-14T12:37:00;97926.44;;;6.32;83.13
75008;BME280;63554;48.940;12.050;2024-02-14T12:41:06;97926.34;;;6.40;83.32
75008;BME280;63554;48.940;12.050;2024-02-14T12:45:09;97931.91;;;6.53;83.22
75008;BME280;63554;48.940;12.050;2024-02-14T12:49:13;97918.91;;;6.71;83.12
75008;BME280;63554;48.940;12.050;2024-02-14T12:53:17;97910.00;;;7.06;82.72
75008;BME280;63554;48.940;12.050;2024-02-14T12:57:22;97896.88;;;7.60;82.34
75008;BME280;63554;48.940;12.050;2024-02-14T13:01:25;97889.50;;;7.90;82.31
75008;BME280;63554;48.940;12.050;2024-02-14T13:05:28;97885.06;;;8.10;81.52
75008;BME280;63554;48.940;12.050;2024-02-14T13:09:31;97887.38;;;8.13;80.57
75008;BME280;63554;48.940;12.050;2024-02-14T13:13:36;97881.91;;;8.28;79.99
75008;BME280;63554;48.940;12.050;2024-02-14T13:17:38;97883.75;;;8.68;79.63
75008;BME280;63554;48.940;12.050;2024-02-14T13:21:41;97874.19;;;9.06;78.87
75008;BME280;63554;48.940;12.050;2024-02-14T13:25:46;97876.31;;;9.50;77.79
75008;BME280;63554;48.940;12.050;2024-02-14T13:29:52;97884.47;;;10.02;77.18
75008;BME280;63554;48.940;12.050;2024-02-14T13:33:54;97882.41;;;10.24;75.46
75008;BME280;63554;48.940;12.050;2024-02-14T13:37:57;97887.81;;;10.24;74.11
75008;BME280;63554;48.940;12.050;2024-02-14T13:42:00;97878.84;;;10.11;72.78
75008;BME280;63554;48.940;12.050;2024-02-14T13:46:05;97884.06;;;10.19;72.36
75008;BME280;63554;48.940;12.050;2024-02-14T13:50:09;97878.81;;;10.43;71.46
75008;BME280;63554;48.940;12.050;2024-02-14T13:54:12;97875.75;;;10.84;71.05
75008;BME280;63554;48.940;12.050;2024-02-14T13:58:14;97877.28;;;10.67;70.05
75008;BME280;63554;48.940;12.050;2024-02-14T14:02:20;97866.56;;;10.34;69.72
75008;BME280;63554;48.940;12.050;2024-02-14T14:06:23;97861.56;;;10.05;70.07
75008;BME280;63554;48.940;12.050;2024-02-14T14:10:26;97865.34;;;9.91;71.17
75008;BME280;63554;48.940;12.050;2024-02-14T14:14:30;97864.09;;;9.67;71.21
75008;BME280;63554;48.940;12.050;2024-02-14T14:18:34;97868.66;;;9.54;72.53
75008;BME280;63554;48.940;12.050;2024-02-14T14:22:38;97877.34;;;9.42;73.32
75008;BME280;63554;48.940;12.050;2024-02-14T14:26:40;97875.09;;;9.39;73.88
75008;BME280;63554;48.940;12.050;2024-02-14T14:30:43;97866.34;;;9.31;73.24
75008;BME280;63554;48.940;12.050;2024-02-14T14:34:48;97878.13;;;9.17;73.60
75008;BME280;63554;48.940;12.050;2024-02-14T14:38:51;97886.00;;;9.05;74.93
75008;BME280;63554;48.940;12.050;2024-02-14T14:42:56;97892.41;;;8.98;75.47
75008;BME280;63554;48.940;12.050;2024-02-14T14:46:58;97886.81;;;8.93;75.09
75008;BME280;63554;48.940;12.050;2024-02-14T14:51:03;97890.28;;;8.87;76.43
75008;BME280;63554;48.940;12.050;2024-02-14T14:55:06;97894.00;;;8.72;76.66
75008;BME280;63554;48.940;12.050;2024-02-14T14:59:09;97900.31;;;8.52;77.04
75008;BME280;63554;48.940;12.050;2024-02-14T15:03:13;97894.84;;;8.39;76.79
75008;BME280;63554;48.940;12.050;2024-02-14T15:07:17;97901.34;;;8.23;76.68
75008;BME280;63554;48.940;12.050;2024-02-14T15:11:21;97906.44;;;8.11;78.19
75008;BME280;63554;48.940;12.050;2024-02-14T15:15:24;97907.66;;;8.09;77.72
75008;BME280;63554;48.940;12.050;2024-02-14T15:19:27;97901.03;;;8.11;78.47
75008;BME280;63554;48.940;12.050;2024-02-14T15:23:31;97891.31;;;8.10;78.88
75008;BME280;63554;48.940;12.050;2024-02-14T15:27:34;97893.41;;;8.15;78.94
75008;BME280;63554;48.940;12.050;2024-02-14T15:31:41;97900.78;;;8.06;79.19
75008;BME280;63554;48.940;12.050;2024-02-14T15:36:13;97902.94;;;8.11;79.36
75008;BME280;63554;48.940;12.050;2024-02-14T15:40:18;97902.69;;;8.06;79.73
75008;BME280;63554;48.940;12.050;2024-02-14T15:44:21;97908.34;;;8.17;80.77
75008;BME280;63554;48.940;12.050;2024-02-14T15:48:24;97906.84;;;8.08;80.45
75008;BME280;63554;48.940;12.050;2024-02-14T15:52:30;97907.34;;;7.91;81.04
75008;BME280;63554;48.940;12.050;2024-02-14T15:56:34;97898.47;;;7.76;80.44
75008;BME280;63554;48.940;12.050;2024-02-14T16:00:37;97901.47;;;7.60;80.02
75008;BME280;63554;48.940;12.050;2024-02-14T16:04:39;97906.72;;;7.46;80.61
75008;BME280;63554;48.940;12.050;2024-02-14T16:08:43;97893.38;;;7.38;80.35
75008;BME280;63554;48.940;12.050;2024-02-14T16:12:48;97893.13;;;7.33;80.92
75008;BME280;63554;48.940;12.050;2024-02-14T16:16:50;97890.81;;;7.30;81.17
75008;BME280;63554;48.940;12.050;2024-02-14T16:20:53;97903.38;;;7.23;81.02
75008;BME280;63554;48.940;12.050;2024-02-14T16:24:56;97916.97;;;7.15;80.95
75008;BME280;63554;48.940;12.050;2024-02-14T16:29:00;97916.97;;;7.15;81.54
75008;BME280;63554;48.940;12.050;2024-02-14T16:33:03;97925.88;;;7.16;81.26
75008;BME280;63554;48.940;12.050;2024-02-14T16:37:07;97926.06;;;7.14;81.40
75008;BME280;63554;48.940;12.050;2024-02-14T16:41:10;97938.88;;;7.12;81.74
75008;BME280;63554;48.940;12.050;2024-02-14T16:45:14;97940.94;;;7.10;81.73
75008;BME280;63554;48.940;12.050;2024-02-14T16:49:20;97940.84;;;7.04;81.84
75008;BME280;63554;48.940;12.050;2024-02-14T16:53:22;97947.81;;;6.98;81.79
75008;BME280;63554;48.940;12.050;2024-02-14T16:57:25;97937.81;;;6.92;82.17
75008;BME280;63554;48.940;12.050;2024-02-14T17:01:29;97939.00;;;6.89;82.50
75008;BME280;63554;48.940;12.050;2024-02-14T17:05:32;97942.91;;;6.87;82.49
75008;BME280;63554;48.940;12.050;2024-02-14T17:09:37;97938.53;;;6.86;82.51
75008;BME280;63554;48.940;12.050;2024-02-14T17:13:40;97936.53;;;6.88;82.94
75008;BME280;63554;48.940;12.050;2024-02-14T17:17:44;97936.91;;;6.85;82.80
75008;BME280;63554;48.940;12.050;2024-02-14T17:21:47;97941.63;;;6.83;82.67
75008;BME280;63554;48.940;12.050;2024-02-14T17:25:50;97935.22;;;6.84;82.90
75008;BME280;63554;48.940;12.050;2024-02-14T17:29:52;97936.91;;;6.85;83.25
75008;BME280;63554;48.940;12.050;2024-02-14T17:33:57;97951.34;;;6.84;83.32
75008;BME280;63554;48.940;12.050;2024-02-14T17:38:00;97956.31;;;6.80;83.14
75008;BME280;63554;48.940;12.050;2024-02-14T17:42:03;97949.41;;;6.78;83.51
75008;BME280;63554;48.940;12.050;2024-02-14T17:46:05;97954.16;;;6.76;83.25
75008;BME280;63554;48.940;12.050;2024-02-14T17:50:10;97957.41;;;6.71;83.33
75008;BME280;63554;48.940;12.050;2024-02-14T17:54:13;97956.94;;;6.68;83.70
75008;BME280;63554;48.940;12.050;2024-02-14T17:58:16;97953.59;;;6.66;83.78
75008;BME280;63554;48.940;12.050;2024-02-14T18:02:20;97955.72;;;6.70;84.01
75008;BME280;63554;48.940;12.050;2024-02-14T18:06:24;97952.41;;;6.83;84.56
75008;BME280;63554;48.940;12.050;2024-02-14T18:10:27;97953.31;;;6.75;84.36
75008;BME280;63554;48.940;12.050;2024-02-14T18:14:32;97962.06;;;6.77;84.49
75008;BME280;63554;48.940;12.050;2024-02-14T18:18:35;97954.31;;;6.89;84.56
75008;BME280;63554;48.940;12.050;2024-02-14T18:22:40;97958.78;;;6.82;84.95
75008;BME280;63554;48.940;12.050;2024-02-14T18:26:42;97962.41;;;6.74;84.44
75008;BME280;63554;48.940;12.050;2024-02-14T18:30:45;97959.91;;;6.73;84.65
75008;BME280;63554;48.940;12.050;2024-02-14T18:34:48;97959.91;;;6.73;84.61
75008;BME280;63554;48.940;12.050;2024-02-14T18:38:52;97957.78;;;6.68;84.14
75008;BME280;63554;48.940;12.050;2024-02-14T18:42:56;97956.13;;;6.67;84.48
75008;BME280;63554;48.940;12.050;2024-02-14T18:46:59;97952.31;;;6.62;84.08
75008;BME280;63554;48.940;12.050;2024-02-14T18:51:02;97948.31;;;6.58;84.27
75008;BME280;63554;48.940;12.050;2024-02-14T18:55:07;97948.03;;;6.53;84.54
75008;BME280;63554;48.940;12.050;2024-02-14T18:59:09;97945.06;;;6.48;84.31
75008;BME280;63554;48.940;12.050;2024-02-14T19:03:12;97942.09;;;6.43;84.29
75008;BME280;63554;48.940;12.050;2024-02-14T19:07:15;97949.88;;;6.38;84.29
75008;BME280;63554;48.940;12.050;2024-02-14T19:11:20;97950.09;;;6.36;84.41
75008;BME280;63554;48.940;12.050;2024-02-14T19:15:23;97950.66;;;6.32;84.36
75008;BME280;63554;48.940;12.050;2024-02-14T19:19:26;97951.00;;;6.28;84.66
75008;BME280;63554;48.940;12.050;2024-02-14T19:23:30;97946.84;;;6.26;84.64
75008;BME280;63554;48.940;12.050;2024-02-14T19:27:38;97945.78;;;6.27;84.55
75008;BME280;63554;48.940;12.050;2024-02-14T19:31:41;97942.31;;;6.26;84.65
75008;BME280;63554;48.940;12.050;2024-02-14T19:35:44;97941.47;;;6.26;84.50
75008;BME280;63554;48.940;12.050;2024-02-14T19:39:47;97943.09;;;6.27;84.76
75008;BME280;63554;48.940;12.050;2024-02-14T19:43:51;97941.25;;;6.27;85.01
75008;BME280;63554;48.940;12.050;2024-02-14T19:47:54;97941.63;;;6.24;85.08
75008;BME280;63554;48.940;12.050;2024-02-14T19:51:57;97943.47;;;6.24;84.93
75008;BME280;63554;48.940;12.050;2024-02-14T19:56:00;97937.28;;;6.23;84.98
75008;BME280;63554;48.940;12.050;2024-02-14T20:00:05;97930.22;;;6.22;85.05
75008;BME280;63554;48.940;12.050;2024-02-14T20:04:10;97926.25;;;6.18;85.00
75008;BME280;63554;48.940;12.050;2024-02-14T20:08:13;97927.81;;;6.13;84.87
75008;BME280;63554;48.940;12.050;2024-02-14T20:12:16;97932.34;;;6.12;84.89
75008;BME280;63554;48.940;12.050;2024-02-14T20:16:21;97934.19;;;6.12;85.06
75008;BME280;63554;48.940;12.050;2024-02-14T20:20:24;97943.94;;;6.13;84.85
75008;BME280;63554;48.940;12.050;2024-02-14T20:24:27;97943.75;;;6.14;85.11
75008;BME280;63554;48.940;12.050;2024-02-14T20:28:29;97938.38;;;6.14;85.08
75008;BME280;63554;48.940;12.050;2024-02-14T20:32:35;97935.41;;;6.09;85.14
75008;BME280;63554;48.940;12.050;2024-02-14T20:36:39;97943.66;;;6.08;84.87
75008;BME280;63554;48.940;12.050;2024-02-14T20:40:43;97940.78;;;6.09;84.84
75008;BME280;63554;48.940;12.050;2024-02-14T20:44:45;97934.41;;;6.10;85.14
75008;BME280;63554;48.940;12.050;2024-02-14T20:48:50;97929.03;;;6.10;85.32
75008;BME280;63554;48.940;12.050;2024-02-14T20:52:53;97925.28;;;6.11;85.15
75008;BME280;63554;48.940;12.050;2024-02-14T20:56:56;97920.97;;;6.10;85.07
75008;BME280;63554;48.940;12.050;2024-02-14T21:00:58;97925.50;;;6.10;84.79
75008;BME280;63554;48.940;12.050;2024-02-14T21:05:03;97928.91;;;6.04;85.42
75008;BME280;63554;48.940;12.050;2024-02-14T21:09:06;97934.66;;;6.01;85.17
75008;BME280;63554;48.940;12.050;2024-02-14T21:13:10;97931.31;;;5.99;85.02
75008;BME280;63554;48.940;12.050;2024-02-14T21:17:13;97928.81;;;5.97;84.98
75008;BME280;63554;48.940;12.050;2024-02-14T21:21:18;97926.13;;;5.97;85.44
75008;BME280;63554;48.940;12.050;2024-02-14T21:25:20;97923.59;;;5.96;85.11
75008;BME280;63554;48.940;12.050;2024-02-14T21:29:23;97933.53;;;5.95;85.11